< Typhoon 196602 1966 Season Typhoon 196604 >
Typhoon 196603 (JUDY)
General InformationTrack Information on Google Maps || Disaster Info.ResourceGoogle EarthGE AnimationAtom FeedGeoJSON
Detalied Best Track (Time Zone = UTC)
Year Month Day Hour Lat. Long. Pressure (hPa) Wind (kt) Class Image Chart
1966 5 21 06 15.5 117.0 1004 0 2 -- Chart
1966 5 21 12 15.0 115.0 1004 0 2 -- Chart
1966 5 21 18 14.5 114.0 1004 0 2 -- Chart
1966 5 22 00 14.0 114.0 1005 0 2 -- Chart
1966 5 22 06 13.5 114.0 1005 0 2 -- Chart
1966 5 22 12 13.2 114.0 1004 0 2 -- Chart
1966 5 22 18 13.0 114.0 1004 0 2 -- Chart
1966 5 23 00 14.0 115.0 1004 0 2 -- Chart
1966 5 23 06 14.2 115.2 1005 0 2 -- Chart
1966 5 23 12 14.4 115.4 1006 0 2 -- Chart
1966 5 23 18 14.5 115.5 1004 0 2 -- Chart
1966 5 24 00 14.0 116.0 1004 0 2 -- Chart
1966 5 24 06 14.0 116.2 1002 0 2 -- Chart
1966 5 24 12 14.0 116.5 1002 0 2 -- Chart
1966 5 24 18 14.0 116.8 1002 0 2 -- Chart
1966 5 25 00 14.0 117.0 1002 0 2 -- Chart
1966 5 25 06 14.1 117.1 1002 0 2 -- Chart
1966 5 25 12 14.2 117.2 998 0 2 -- Chart
1966 5 25 18 14.3 117.3 994 0 9 -- Chart
1966 5 26 00 14.6 117.7 990 0 9 -- Chart
1966 5 26 06 14.9 118.1 990 0 9 -- Chart
1966 5 26 12 15.4 118.5 990 0 9 -- Chart
1966 5 26 18 16.0 118.4 990 0 9 -- Chart
1966 5 27 00 16.5 117.9 985 0 9 -- Chart
1966 5 27 06 16.9 117.6 985 0 9 -- Chart
1966 5 27 12 17.3 117.3 980 0 9 -- Chart
1966 5 27 18 18.0 117.0 980 0 9 -- Chart
1966 5 28 00 18.5 116.6 976 0 9 -- Chart
1966 5 28 06 18.9 116.5 974 0 9 -- Chart
1966 5 28 12 19.5 116.5 974 0 9 -- Chart
1966 5 28 18 20.0 116.5 976 0 9 -- Chart
1966 5 29 00 20.7 116.5 980 0 9 -- Chart
1966 5 29 06 20.9 116.9 980 0 9 -- Chart
1966 5 29 12 21.1 117.3 980 0 9 -- Chart
1966 5 29 18 21.6 117.9 980 0 9 -- Chart
1966 5 30 00 22.2 118.5 980 0 9 -- Chart
1966 5 30 06 22.7 119.4 985 0 9 -- Chart
1966 5 30 12 23.1 120.9 990 0 9 -- Chart
1966 5 30 18 23.9 122.7 992 0 9 -- Chart
1966 5 31 00 25.3 124.5 996 0 9 -- Chart
1966 5 31 06 27.1 126.5 996 0 9 -- Chart
1966 5 31 12 28.7 128.5 996 0 9 -- Chart
1966 5 31 18 30.2 130.3 996 0 9 -- Chart
1966 6 1 00 31.3 132.9 998 0 6 -- Chart
1966 6 1 06 32.2 136.0 996 0 6 -- Chart
1966 6 1 12 33.2 140.0 998 0 6 -- Chart
1966 6 1 18 33.8 144.0 998 0 6 -- Chart
1966 6 2 00 34.1 148.1 996 0 6 -- Chart
1966 6 2 06 34.9 151.5 996 0 6 -- Chart
1966 6 2 12 35.4 154.5 996 0 6 -- Chart
1966 6 2 18 35.8 157.2 996 0 6 -- Chart
1966 6 3 00 36.1 160.0 996 0 6 -- Chart
1966 6 3 06 36.8 163.5 996 0 6 -- Chart
1966 6 3 12 37.3 167.0 998 0 6 -- Chart
1966 6 3 18 38.0 170.0 996 0 6 -- Chart
1966 6 4 00 39.2 173.0 996 0 6 -- Chart
1966 6 4 06 40.2 176.1 994 0 6 -- Chart
1966 6 4 12 41.1 179.3 996 0 6 -- Chart
1966 6 4 18 42.0 184.0 996 0 6 -- Chart
Japan Meteorological Agency Best Track Data | Correction Date : 1991-07-16
< Typhoon 196602 1966 Season Typhoon 196604 >

Help